createdAt,value
2024-05-09T00:00:42.665Z,435.7
2024-05-09T00:03:32.642Z,431.9
2024-05-09T00:06:32.698Z,428.7
2024-05-09T00:09:32.460Z,427.5
2024-05-09T00:12:32.871Z,428.4
2024-05-09T00:15:32.627Z,432.0
2024-05-09T00:18:33.378Z,437.6
2024-05-09T00:21:32.774Z,442.3
2024-05-09T00:24:32.492Z,442.3
2024-05-09T00:27:32.520Z,439.1
2024-05-09T00:33:33.348Z,431.8
2024-05-09T00:36:32.577Z,432.7
2024-05-09T00:39:32.485Z,436.2
2024-05-09T00:42:32.529Z,435.6
2024-05-09T00:45:32.562Z,436.5
2024-05-09T00:48:37.139Z,436.4
2024-05-09T00:51:32.895Z,436.4
2024-05-09T00:54:32.544Z,440.0
2024-05-09T00:57:33.542Z,442.7
2024-05-09T01:03:33.318Z,439.1
2024-05-09T01:06:32.641Z,432.7
2024-05-09T01:09:32.499Z,437.3
2024-05-09T01:12:33.246Z,441.8
2024-05-09T01:15:32.644Z,440.2
2024-05-09T01:18:33.640Z,433.6
2024-05-09T01:21:32.498Z,439.1
2024-05-09T01:24:32.469Z,440.9
2024-05-09T01:27:32.459Z,438.2
2024-05-09T01:30:37.906Z,435.5
2024-05-09T01:33:33.260Z,437.3
2024-05-09T01:36:32.677Z,440.9
2024-05-09T01:39:32.438Z,439.1
2024-05-09T01:42:32.470Z,439.1
2024-05-09T01:45:32.437Z,437.3
2024-05-09T01:48:33.454Z,440.0
2024-05-09T01:51:32.781Z,441.8
2024-05-09T01:54:32.569Z,444.4
2024-05-09T01:57:32.464Z,445.5
2024-05-09T02:00:43.151Z,446.4
2024-05-09T02:03:34.422Z,448.2
2024-05-09T02:06:32.543Z,450.0
2024-05-09T02:09:32.462Z,454.5
2024-05-09T02:12:32.994Z,456.4
2024-05-09T02:15:32.466Z,454.5
2024-05-09T02:18:33.210Z,450.9
2024-05-09T02:21:32.902Z,453.6
2024-05-09T02:24:32.507Z,452.7
2024-05-09T02:27:32.488Z,453.6
2024-05-09T02:30:42.674Z,453.6
2024-05-09T02:33:33.270Z,449.1
2024-05-09T02:36:32.500Z,448.2
2024-05-09T02:39:32.513Z,451.8
2024-05-09T02:42:32.603Z,452.7
2024-05-09T02:45:32.596Z,455.5
2024-05-09T02:48:34.119Z,454.5
2024-05-09T02:51:32.681Z,457.3
2024-05-09T02:54:32.683Z,458.2
2024-05-09T02:57:32.860Z,457.5
2024-05-09T03:00:40.762Z,460.0
2024-05-09T03:03:33.487Z,459.0
2024-05-09T03:06:32.654Z,459.0
2024-05-09T03:09:32.521Z,464.2
2024-05-09T03:12:33.269Z,460.9
2024-05-09T03:15:32.532Z,461.7
2024-05-09T03:18:33.346Z,461.3
2024-05-09T03:21:32.493Z,461.6
2024-05-09T03:24:32.541Z,460.9
2024-05-09T03:27:32.431Z,459.1
2024-05-09T03:33:35.207Z,463.6
2024-05-09T03:36:32.416Z,462.7
2024-05-09T03:39:32.483Z,460.9
2024-05-09T03:42:32.508Z,464.5
2024-05-09T03:45:32.449Z,464.5
2024-05-09T03:48:33.654Z,465.5
2024-05-09T03:51:32.651Z,462.7
2024-05-09T03:54:32.423Z,464.5
2024-05-09T03:57:32.435Z,464.5
2024-05-09T04:00:42.511Z,467.3
2024-05-09T04:03:33.183Z,465.5
2024-05-09T04:06:32.490Z,465.9
2024-05-09T04:09:32.507Z,465.4
2024-05-09T04:12:32.883Z,466.5
2024-05-09T04:15:32.696Z,468.5
2024-05-09T04:18:34.000Z,476.6
2024-05-09T04:21:32.608Z,482.7
2024-05-09T04:24:32.530Z,483.4
2024-05-09T04:27:32.551Z,487.0
2024-05-09T04:33:33.112Z,489.7
2024-05-09T04:36:32.471Z,489.5
2024-05-09T04:39:32.492Z,492.6
2024-05-09T04:42:32.545Z,492.0
2024-05-09T04:45:32.592Z,566.9
2024-05-09T04:48:33.776Z,488.3
2024-05-09T04:51:32.575Z,486.4
2024-05-09T04:57:32.507Z,490.8
2024-05-09T05:00:42.166Z,494.5
2024-05-09T05:03:33.625Z,494.7
2024-05-09T05:06:32.545Z,495.6
2024-05-09T05:09:32.607Z,505.5
2024-05-09T05:12:32.784Z,500.7
2024-05-09T05:15:32.648Z,499.9
2024-05-09T05:18:33.250Z,498.6
2024-05-09T05:21:32.901Z,493.9
2024-05-09T05:24:32.465Z,493.3
2024-05-09T05:27:32.455Z,491.4
2024-05-09T05:30:40.937Z,492.2
2024-05-09T05:33:33.180Z,486.9
2024-05-09T05:36:32.523Z,481.9
2024-05-09T05:39:32.455Z,477.9
2024-05-09T05:42:32.441Z,480.5
2024-05-09T05:45:32.468Z,479.2
2024-05-09T05:48:34.097Z,475.9
2024-05-09T05:51:35.990Z,471.0
2024-05-09T05:54:32.508Z,470.0
2024-05-09T05:57:32.484Z,468.6
2024-05-09T06:03:32.833Z,463.8
2024-05-09T06:06:32.530Z,464.6
2024-05-09T06:09:32.400Z,464.5
2024-05-09T06:12:32.705Z,492.8
2024-05-09T06:15:32.518Z,465.1
2024-05-09T06:18:33.871Z,464.1
2024-05-09T06:21:32.866Z,467.5
2024-05-09T06:24:33.719Z,465.6
2024-05-09T06:27:32.504Z,464.5
2024-05-09T06:33:33.560Z,460.9
2024-05-09T06:36:32.528Z,461.5
2024-05-09T06:39:32.498Z,458.4
2024-05-09T06:42:32.522Z,455.5
2024-05-09T06:45:32.658Z,470.5
2024-05-09T06:48:33.386Z,471.2
2024-05-09T06:51:32.707Z,464.9
2024-05-09T06:54:32.510Z,465.4
2024-05-09T06:57:32.495Z,463.6
2024-05-09T07:03:37.045Z,466.5
2024-05-09T07:06:32.627Z,467.5
2024-05-09T07:09:32.571Z,470.4
2024-05-09T07:12:33.114Z,464.6
2024-05-09T07:15:32.476Z,462.1
2024-05-09T07:18:35.574Z,470.6
2024-05-09T07:21:32.539Z,478.9
2024-05-09T07:24:32.637Z,473.8
2024-05-09T07:27:32.442Z,473.2
2024-05-09T07:30:39.775Z,475.0
2024-05-09T07:33:33.422Z,468.5
2024-05-09T07:36:32.532Z,468.8
2024-05-09T07:39:32.457Z,466.5
2024-05-09T07:42:32.446Z,465.0
2024-05-09T07:54:34.359Z,456.6
2024-05-09T07:57:32.897Z,454.1
2024-05-09T08:00:39.855Z,449.6
2024-05-09T08:03:32.998Z,452.1
2024-05-09T08:06:32.541Z,456.2
2024-05-09T08:09:38.467Z,461.5
2024-05-09T08:12:32.444Z,463.1
2024-05-09T08:15:32.642Z,462.5
2024-05-09T08:18:33.315Z,463.9
2024-05-09T08:21:32.608Z,468.4
2024-05-09T08:24:32.571Z,468.6
2024-05-09T08:27:32.535Z,468.5
2024-05-09T08:30:41.527Z,461.6
2024-05-09T08:33:33.157Z,460.1
2024-05-09T08:36:32.586Z,458.4
2024-05-09T08:39:32.585Z,453.1
2024-05-09T08:42:32.551Z,451.2
2024-05-09T08:45:32.584Z,453.6
2024-05-09T08:48:33.322Z,454.2
2024-05-09T08:51:32.605Z,454.0
2024-05-09T08:54:32.553Z,453.4
2024-05-09T08:57:32.517Z,452.0
2024-05-09T09:00:36.470Z,451.0
2024-05-09T09:03:32.658Z,450.3
2024-05-09T09:06:32.544Z,450.1
2024-05-09T09:09:32.546Z,450.5
2024-05-09T09:12:32.637Z,449.4
2024-05-09T09:15:32.881Z,452.7
2024-05-09T09:18:33.944Z,448.7
2024-05-09T09:21:32.493Z,444.5
2024-05-09T09:24:32.525Z,445.9
2024-05-09T09:27:32.466Z,441.0
2024-05-09T09:33:33.069Z,442.5
2024-05-09T09:36:32.453Z,447.5
2024-05-09T09:39:32.523Z,449.6
2024-05-09T09:42:32.557Z,453.1
2024-05-09T09:45:37.923Z,456.6
2024-05-09T09:48:32.840Z,452.8
2024-05-09T09:51:32.476Z,452.1
2024-05-09T09:54:32.582Z,450.6
2024-05-09T09:57:32.683Z,452.4
2024-05-09T10:00:33.918Z,454.8
2024-05-09T10:03:33.096Z,451.5
2024-05-09T10:06:32.696Z,450.1
2024-05-09T10:09:32.470Z,455.3
2024-05-09T10:12:33.422Z,451.6
2024-05-09T10:15:32.525Z,448.8
2024-05-09T10:18:34.250Z,447.0
2024-05-09T10:21:32.555Z,447.1
2024-05-09T10:24:32.668Z,449.7
2024-05-09T10:27:32.642Z,446.1
2024-05-09T10:30:43.286Z,441.1
2024-05-09T10:33:32.795Z,445.8
2024-05-09T10:36:32.516Z,444.9
2024-05-09T10:39:32.536Z,445.3
2024-05-09T10:42:32.625Z,447.0
2024-05-09T10:45:32.662Z,443.0
2024-05-09T10:48:33.041Z,442.6
2024-05-09T10:51:32.607Z,441.6
2024-05-09T10:54:32.575Z,443.8
2024-05-09T10:57:32.665Z,445.2
2024-05-09T11:03:32.960Z,444.8
2024-05-09T11:06:32.580Z,439.1
2024-05-09T11:09:32.559Z,442.2
2024-05-09T11:12:32.718Z,444.6
2024-05-09T11:15:32.469Z,441.8
2024-05-09T11:18:35.055Z,445.2
2024-05-09T11:21:32.504Z,449.5
2024-05-09T11:24:32.899Z,443.2
2024-05-09T11:27:32.605Z,445.1
2024-05-09T11:30:40.491Z,447.2
2024-05-09T11:33:32.955Z,445.2
2024-05-09T11:36:32.499Z,448.4
2024-05-09T11:39:32.510Z,447.2
2024-05-09T11:42:32.540Z,447.0
2024-05-09T11:45:32.679Z,446.3
2024-05-09T11:48:32.959Z,447.5
2024-05-09T11:51:32.607Z,449.3
2024-05-09T11:54:32.583Z,447.0
2024-05-09T11:57:32.625Z,444.7
2024-05-09T12:00:41.505Z,447.4
2024-05-09T12:03:32.846Z,444.7
2024-05-09T12:06:33.114Z,445.7
2024-05-09T12:09:32.437Z,448.9
2024-05-09T12:12:34.225Z,446.0
2024-05-09T12:15:32.628Z,444.4
2024-05-09T12:18:36.232Z,441.2
2024-05-09T12:21:32.626Z,445.1
2024-05-09T12:24:34.782Z,444.0
2024-05-09T12:27:32.607Z,444.4
2024-05-09T12:33:33.218Z,442.0
2024-05-09T12:36:32.691Z,443.0
2024-05-09T12:39:32.674Z,444.4
2024-05-09T12:45:32.809Z,441.9
2024-05-09T12:48:33.257Z,451.3
2024-05-09T12:51:32.630Z,445.5
2024-05-09T12:54:32.732Z,443.6
2024-05-09T12:57:32.745Z,442.9
2024-05-09T13:03:33.452Z,440.6
2024-05-09T13:06:32.568Z,439.1
2024-05-09T13:09:32.588Z,440.0
2024-05-09T13:12:32.715Z,437.8
2024-05-09T13:15:32.530Z,438.5
2024-05-09T13:18:35.773Z,437.8
2024-05-09T13:21:32.448Z,439.5
2024-05-09T13:24:33.068Z,437.0
2024-05-09T13:27:32.470Z,435.5
2024-05-09T13:33:32.939Z,436.5
2024-05-09T13:36:32.470Z,435.7
2024-05-09T13:39:32.505Z,436.6
2024-05-09T13:42:32.479Z,437.0
2024-05-09T13:45:32.581Z,441.1
2024-05-09T13:48:32.988Z,433.3
2024-05-09T13:51:32.481Z,435.1
2024-05-09T13:54:35.539Z,434.3
2024-05-09T13:57:32.509Z,433.9
2024-05-09T14:03:35.112Z,436.8
2024-05-09T14:06:32.671Z,436.5
2024-05-09T14:09:32.537Z,436.7
2024-05-09T14:12:32.481Z,438.3
2024-05-09T14:15:32.607Z,434.8
2024-05-09T14:18:32.855Z,431.3
2024-05-09T14:21:32.490Z,431.6
2024-05-09T14:24:32.493Z,430.8
2024-05-09T14:27:32.571Z,431.9
2024-05-09T14:30:42.938Z,434.6
2024-05-09T14:33:32.963Z,435.7
2024-05-09T14:36:32.498Z,434.4
2024-05-09T14:39:32.739Z,430.6
2024-05-09T14:42:32.681Z,430.9
2024-05-09T14:45:32.698Z,429.0
2024-05-09T14:48:33.010Z,431.3
2024-05-09T14:51:32.532Z,426.0
2024-05-09T14:54:32.535Z,426.0
2024-05-09T14:57:32.489Z,426.0
2024-05-09T15:00:44.357Z,430.3
2024-05-09T15:03:33.208Z,427.4
2024-05-09T15:06:32.617Z,427.8
2024-05-09T15:09:32.547Z,426.0
2024-05-09T15:12:32.705Z,425.9
2024-05-09T15:15:32.523Z,426.6
2024-05-09T15:18:33.275Z,429.4
2024-05-09T15:21:32.545Z,429.4
2024-05-09T15:24:32.496Z,424.5
2024-05-09T15:27:32.504Z,424.4
2024-05-09T15:30:42.115Z,423.7
2024-05-09T15:33:33.976Z,429.1
2024-05-09T15:36:32.498Z,433.0
2024-05-09T15:39:32.425Z,433.5
2024-05-09T15:42:32.512Z,430.6
2024-05-09T15:45:32.620Z,432.3
2024-05-09T15:48:33.127Z,433.0
2024-05-09T15:51:32.495Z,433.2
2024-05-09T15:54:32.439Z,433.9
2024-05-09T15:57:32.454Z,432.0
2024-05-09T16:03:32.750Z,435.6
2024-05-09T16:06:32.575Z,435.2
2024-05-09T16:09:32.558Z,435.5
2024-05-09T16:12:32.543Z,434.9
2024-05-09T16:15:32.611Z,436.8
2024-05-09T16:18:33.430Z,435.7
2024-05-09T16:21:32.702Z,431.7
2024-05-09T16:24:32.541Z,433.6
2024-05-09T16:27:32.765Z,435.5
2024-05-09T16:33:33.084Z,432.1
2024-05-09T16:36:32.551Z,431.9
2024-05-09T16:39:32.530Z,432.5
2024-05-09T16:42:32.614Z,432.2
2024-05-09T16:45:32.585Z,427.7
2024-05-09T16:48:33.338Z,427.5
2024-05-09T16:51:32.603Z,424.7
2024-05-09T16:54:32.606Z,428.0
2024-05-09T16:57:32.586Z,427.5
2024-05-09T17:03:33.282Z,431.8
2024-05-09T17:06:32.604Z,430.5
2024-05-09T17:12:32.583Z,428.2
2024-05-09T17:15:33.017Z,429.2
2024-05-09T17:18:32.730Z,428.5
2024-05-09T17:21:32.495Z,430.8
2024-05-09T17:24:32.529Z,429.4
2024-05-09T17:27:32.586Z,428.6
2024-05-09T17:33:32.897Z,434.7
2024-05-09T17:36:32.454Z,435.9
2024-05-09T17:39:32.456Z,433.5
2024-05-09T17:42:32.473Z,434.4
2024-05-09T17:45:32.980Z,435.2
2024-05-09T17:48:33.350Z,431.2
2024-05-09T17:51:32.418Z,434.5
2024-05-09T17:54:32.497Z,434.8
2024-05-09T17:57:32.572Z,434.9
2024-05-09T18:03:32.655Z,431.4
2024-05-09T18:06:32.514Z,432.9
2024-05-09T18:09:32.469Z,431.2
2024-05-09T18:12:32.759Z,431.3
2024-05-09T18:15:32.976Z,428.5
2024-05-09T18:18:33.081Z,429.4
2024-05-09T18:21:32.692Z,430.1
2024-05-09T18:24:32.777Z,431.0
2024-05-09T18:27:32.649Z,430.8
2024-05-09T18:33:33.252Z,428.7
2024-05-09T18:36:32.525Z,431.9
2024-05-09T18:39:32.607Z,430.8
2024-05-09T18:42:32.568Z,433.2
2024-05-09T18:45:32.770Z,431.7
2024-05-09T18:48:33.158Z,434.2
2024-05-09T18:51:32.645Z,437.7
2024-05-09T18:54:32.554Z,433.6
2024-05-09T18:57:32.502Z,437.5
2024-05-09T19:03:33.370Z,442.1
2024-05-09T19:06:32.617Z,443.3
2024-05-09T19:09:32.554Z,448.6
2024-05-09T19:12:32.597Z,448.0
2024-05-09T19:15:32.564Z,456.1
2024-05-09T19:18:32.869Z,452.8
2024-05-09T19:21:32.604Z,455.3
2024-05-09T19:24:32.538Z,458.6
2024-05-09T19:27:32.574Z,457.2
2024-05-09T19:33:33.038Z,462.7
2024-05-09T19:36:32.516Z,465.5
2024-05-09T19:39:32.606Z,461.9
2024-05-09T19:42:32.506Z,463.3
2024-05-09T19:45:32.958Z,467.0
2024-05-09T19:48:33.043Z,464.2
2024-05-09T19:51:32.724Z,464.5
2024-05-09T19:54:32.619Z,458.5
2024-05-09T19:57:32.680Z,453.3
2024-05-09T20:00:43.489Z,451.3
2024-05-09T20:03:33.015Z,450.5
2024-05-09T20:06:32.500Z,449.5
2024-05-09T20:09:32.512Z,452.2
2024-05-09T20:12:32.507Z,450.7
2024-05-09T20:15:32.578Z,444.4
2024-05-09T20:18:33.346Z,444.9
2024-05-09T20:21:32.994Z,439.4
2024-05-09T20:24:32.473Z,439.4
2024-05-09T20:27:32.486Z,441.8
2024-05-09T20:30:41.811Z,434.5
2024-05-09T20:33:33.307Z,433.5
2024-05-09T20:36:34.885Z,436.6
2024-05-09T20:39:32.500Z,434.2
2024-05-09T20:42:32.550Z,434.1
2024-05-09T20:45:32.609Z,437.0
2024-05-09T20:48:33.385Z,440.8
2024-05-09T20:51:32.605Z,439.1
2024-05-09T20:54:32.549Z,438.2
2024-05-09T20:57:32.515Z,440.2
2024-05-09T21:00:41.007Z,438.5
2024-05-09T21:03:34.244Z,442.9
2024-05-09T21:06:32.532Z,439.5
2024-05-09T21:09:32.596Z,448.1
2024-05-09T21:12:32.566Z,447.6
2024-05-09T21:15:32.444Z,449.2
2024-05-09T21:18:32.772Z,448.5
2024-05-09T21:21:32.729Z,450.3
2024-05-09T21:24:32.518Z,450.4
2024-05-09T21:27:32.491Z,449.9
2024-05-09T21:33:32.872Z,452.9
2024-05-09T21:36:32.559Z,452.9
2024-05-09T21:39:32.473Z,453.6
2024-05-09T21:42:32.510Z,452.9
2024-05-09T21:45:32.579Z,454.1
2024-05-09T21:48:32.803Z,454.5
2024-05-09T21:51:32.478Z,458.2
2024-05-09T21:54:32.432Z,460.4
2024-05-09T21:57:32.468Z,457.8
2024-05-09T22:03:32.703Z,455.7
2024-05-09T22:06:32.464Z,452.6
2024-05-09T22:09:32.798Z,449.7
2024-05-09T22:12:32.708Z,450.5
2024-05-09T22:15:32.552Z,453.7
2024-05-09T22:18:33.094Z,447.9
2024-05-09T22:21:32.502Z,449.7
2024-05-09T22:24:32.503Z,448.7
2024-05-09T22:27:32.479Z,449.1
2024-05-09T22:33:33.099Z,451.6
2024-05-09T22:36:32.513Z,454.3
2024-05-09T22:39:32.607Z,453.8
2024-05-09T22:42:32.599Z,455.3
2024-05-09T22:45:32.663Z,456.7
2024-05-09T22:48:33.381Z,460.1
2024-05-09T22:51:32.609Z,457.5
2024-05-09T22:54:32.506Z,460.5
2024-05-09T22:57:32.504Z,459.5
2024-05-09T23:00:37.953Z,456.1
2024-05-09T23:03:33.263Z,457.7
2024-05-09T23:06:32.536Z,466.5
2024-05-09T23:09:32.561Z,466.8
2024-05-09T23:12:32.661Z,467.6
2024-05-09T23:15:32.583Z,467.5
2024-05-09T23:18:32.900Z,463.4
2024-05-09T23:21:32.468Z,464.1
2024-05-09T23:24:32.488Z,462.5
2024-05-09T23:27:32.431Z,462.5
2024-05-09T23:33:32.887Z,466.2
2024-05-09T23:36:32.469Z,469.3
2024-05-09T23:39:32.602Z,468.3
2024-05-09T23:42:32.512Z,469.2
2024-05-09T23:45:32.403Z,470.0
2024-05-09T23:48:33.060Z,471.4
2024-05-09T23:51:32.420Z,472.3
2024-05-09T23:54:32.686Z,472.4
2024-05-09T23:57:32.452Z,472.5
